Time;durP1;ratioP1;P1;durP2;ratioP2;P2;SDS_P1;SDS_P2;PMS_P1;PMS_P2;Temp;Humidity;BMP_temperature;BMP_pressure;BME280_temperature;BME280_humidity;BME280_pressure;Samples;Min_cycle;Max_cycle;Signal;HPM_P1;HPM_P2
2023/03/21 00:01:05;;;;;;;75.38;31.80;;;8.60;99.90;;;7.34;100.00;101182.72;5000382;28;20479;-80
2023/03/21 00:03:35;;;;;;;66.72;30.45;;;8.60;99.90;;;7.33;100.00;101189.72;5005661;28;20036;-80
2023/03/21 00:06:10;;;;;;;61.63;29.85;;;8.60;99.90;;;7.34;100.00;101187.94;4981955;28;20033;-80
2023/03/21 00:08:43;;;;;;;78.75;31.45;;;8.60;99.90;;;7.33;100.00;101181.00;4970111;28;20076;-81
2023/03/21 00:11:13;;;;;;;69.07;30.60;;;8.60;99.90;;;7.35;100.00;101187.06;4957695;28;20378;-80
2023/03/21 00:13:42;;;;;;;70.50;30.08;;;8.60;99.90;;;7.35;100.00;101184.44;5054227;28;20438;-80
2023/03/21 00:16:18;;;;;;;52.08;27.90;;;8.60;99.90;;;7.36;100.00;101180.91;5016123;28;20095;-80
2023/03/21 00:18:53;;;;;;;72.10;30.27;;;8.60;99.90;;;7.35;100.00;101177.44;5005335;28;20079;-81
2023/03/21 00:21:27;;;;;;;71.68;31.02;;;8.60;99.90;;;7.35;100.00;101168.72;4993076;28;20040;-79
2023/03/21 00:23:54;;;;;;;58.92;28.95;;;8.60;99.90;;;7.34;100.00;101180.09;4956115;28;20111;-80
2023/03/21 00:26:21;;;;;;;68.20;30.23;;;8.60;99.90;;;7.36;100.00;101180.91;5004467;28;20031;-78
2023/03/21 00:28:48;;;;;;;56.72;27.73;;;8.60;99.90;;;7.36;100.00;101178.28;4989622;28;20617;-79
2023/03/21 00:31:14;;;;;;;76.40;30.92;;;8.60;99.90;;;7.37;100.00;101177.41;4978944;28;20068;-80
2023/03/21 00:33:45;;;;;;;67.47;30.13;;;8.60;99.90;;;7.35;100.00;101176.59;5017103;28;20041;-80
2023/03/21 00:36:12;;;;;;;58.75;29.85;;;8.60;99.90;;;7.32;100.00;101167.06;4980806;28;20037;-80
2023/03/21 00:38:37;;;;;;;74.70;31.90;;;8.60;99.90;;;7.31;100.00;101172.31;4986328;28;20609;-80
2023/03/21 00:41:06;;;;;;;71.10;30.05;;;8.60;99.90;;;7.30;100.00;101165.34;5020827;28;20053;-79
2023/03/21 00:43:32;;;;;;;79.22;32.08;;;8.60;99.90;;;7.27;100.00;101165.44;4999599;28;20031;-79
2023/03/21 00:46:05;;;;;;;79.60;31.95;;;8.60;99.90;;;7.27;100.00;101162.81;4989634;28;20037;-80
2023/03/21 00:48:31;;;;;;;76.25;30.67;;;8.60;99.90;;;7.26;100.00;101167.22;4999243;28;20098;-80
2023/03/21 00:51:00;;;;;;;79.72;31.33;;;8.60;99.90;;;7.28;100.00;101161.91;5033970;28;20025;-80
2023/03/21 00:53:30;;;;;;;72.47;30.80;;;8.50;99.90;;;7.26;100.00;101158.50;4986158;28;20513;-80
2023/03/21 00:55:56;;;;;;;77.28;30.90;;;8.50;99.90;;;7.28;100.00;101160.16;4994592;28;20025;-80
2023/03/21 00:58:21;;;;;;;63.72;30.38;;;8.50;99.90;;;7.25;100.00;101162.84;4950867;28;20133;-79
2023/03/21 01:00:47;;;;;;;75.97;30.88;;;8.50;99.90;;;7.26;100.00;101161.13;4990012;28;20036;-80
2023/03/21 01:03:15;;;;;;;71.15;30.67;;;8.60;99.90;;;7.27;100.00;101158.44;5035867;28;20040;-80
2023/03/21 01:06:05;;;;;;;67.07;29.60;;;8.50;99.90;;;7.28;100.00;101160.16;5037604;28;20630;-80
2023/03/21 01:08:37;;;;;;;69.75;29.85;;;8.50;99.90;;;7.26;100.00;101159.34;5035350;28;20044;-80
2023/03/21 01:11:11;;;;;;;77.95;30.52;;;8.50;99.90;;;7.27;100.00;101157.59;4983612;28;20480;-79
2023/03/21 01:13:37;;;;;;;80.90;31.23;;;8.60;99.90;;;7.25;100.00;101164.63;5025145;28;20549;-80
2023/03/21 01:16:10;;;;;;;69.43;29.15;;;8.50;99.90;;;7.25;100.00;101156.75;4990200;28;20036;-79
2023/03/21 01:18:39;;;;;;;76.00;29.38;;;8.50;99.90;;;7.22;100.00;101154.22;4991272;28;21768;-79
2023/03/21 01:21:18;;;;;;;77.13;30.05;;;8.50;99.90;;;7.22;100.00;101151.63;4982436;28;20124;-79
2023/03/21 01:23:45;;;;;;;70.78;28.67;;;8.50;99.90;;;7.21;100.00;101149.88;4995740;28;20139;-80
2023/03/21 01:26:17;;;;;;;56.35;26.92;;;8.50;99.90;;;7.22;100.00;101151.63;4983226;28;20032;-80
2023/03/21 01:28:44;;;;;;;62.70;27.30;;;8.50;99.90;;;7.22;100.00;101149.00;5024558;28;20028;-80
2023/03/21 01:31:13;;;;;;;57.47;26.52;;;8.50;99.90;;;7.20;100.00;101154.25;4997260;28;20033;-79
2023/03/21 01:33:39;;;;;;;72.85;28.27;;;8.50;99.90;;;7.21;100.00;101150.72;4970972;28;20067;-80
2023/03/21 01:36:20;;;;;;;63.67;27.10;;;8.50;99.90;;;7.22;100.00;101146.38;5012990;28;20021;-79
2023/03/21 01:38:50;;;;;;;65.95;26.48;;;8.50;99.90;;;7.22;100.00;101147.22;5003756;28;20044;-80
2023/03/21 01:41:35;;;;;;;68.95;29.17;;;8.50;99.90;;;7.24;100.00;101152.44;5040237;22;20404;-80
2023/03/21 01:44:01;;;;;;;65.78;27.40;;;8.50;99.90;;;7.23;100.00;101148.94;5021848;28;20036;-79
2023/03/21 01:46:38;;;;;;;66.20;27.48;;;8.50;99.90;;;7.22;100.00;101151.63;4978844;28;20485;-80
2023/03/21 01:49:07;;;;;;;73.95;29.55;;;8.50;99.90;;;7.20;100.00;101154.25;5028669;28;20037;-79
2023/03/21 01:51:40;;;;;;;78.05;29.77;;;8.50;99.90;;;7.20;100.00;101149.03;5034317;28;20528;-79
2023/03/21 01:54:15;;;;;;;67.80;28.73;;;8.50;99.90;;;7.18;100.00;101146.44;5023862;28;20039;-80
2023/03/21 01:56:46;;;;;;;72.30;30.25;;;8.40;99.90;;;7.15;100.00;101150.91;5023231;28;20028;-80
2023/03/21 01:59:27;;;;;;;77.43;30.95;;;8.40;99.90;;;7.11;100.00;101150.13;5026248;28;20119;-80
2023/03/21 02:01:54;;;;;;;81.53;30.20;;;8.40;99.90;;;7.08;100.00;101144.94;5038430;23;20040;-80
2023/03/21 02:04:27;;;;;;;82.15;31.02;;;8.40;99.90;;;7.05;100.00;101138.94;5039299;28;20396;-79
2023/03/21 02:07:04;;;;;;;81.82;31.10;;;8.40;99.90;;;7.03;100.00;101152.06;5014882;28;20060;-79
2023/03/21 02:09:34;;;;;;;79.35;30.20;;;8.30;99.90;;;7.03;100.00;101145.97;4977240;28;20069;-79
2023/03/21 02:12:01;;;;;;;87.07;32.30;;;8.30;99.90;;;7.00;100.00;101139.06;4978014;28;20501;-79
2023/03/21 02:14:33;;;;;;;76.53;29.75;;;8.30;99.90;;;7.04;100.00;101152.91;4966773;28;20116;-79
2023/03/21 02:17:13;;;;;;;75.30;30.55;;;8.30;99.90;;;7.06;100.00;101145.88;4975255;28;20037;-79
2023/03/21 02:20:01;;;;;;;82.57;30.40;;;8.40;99.90;;;7.05;100.00;101150.28;5030513;28;20465;-79
2023/03/21 02:22:50;;;;;;;79.70;30.13;;;8.30;99.90;;;7.07;100.00;101143.25;5024639;28;20041;-80
2023/03/21 02:25:25;;;;;;;73.35;29.00;;;8.40;99.90;;;7.08;100.00;101150.19;4962684;28;20116;-80
2023/03/21 02:28:09;;;;;;;66.50;28.75;;;8.40;99.90;;;7.11;100.00;101144.03;5003535;28;20035;-80
2023/03/21 02:31:12;;;;;;;67.82;29.48;;;8.40;99.90;;;7.14;100.00;101144.78;5003027;28;20038;-81
2023/03/21 02:34:08;;;;;;;85.85;30.60;;;8.40;99.90;;;7.18;100.00;101151.69;5008722;28;20413;-80
2023/03/21 02:36:49;;;;;;;66.68;27.75;;;8.40;99.90;;;7.20;100.00;101151.66;5007629;28;20143;-81
2023/03/21 02:39:48;;;;;;;68.85;28.13;;;8.40;99.90;;;7.23;100.00;101148.06;5002940;28;20037;-80
2023/03/21 02:42:58;;;;;;;66.43;28.92;;;8.50;99.90;;;7.24;100.00;101141.97;4969918;22;20497;-80
2023/03/21 02:46:04;;;;;;;73.35;29.50;;;8.50;99.90;;;7.25;100.00;101141.03;4949989;28;20435;-80
2023/03/21 02:48:47;;;;;;;69.80;28.77;;;8.50;99.90;;;7.22;100.00;101147.22;4942564;28;20070;-79
2023/03/21 02:51:25;;;;;;;66.15;29.20;;;8.50;99.90;;;7.21;100.00;101150.72;4956124;28;20034;-80
2023/03/21 02:54:25;;;;;;;72.75;29.98;;;8.50;99.90;;;7.19;100.00;101137.69;4939944;28;20503;-79
2023/03/21 02:56:59;;;;;;;65.60;29.08;;;8.40;99.90;;;7.21;100.00;101139.41;4964715;28;20063;-80
2023/03/21 02:59:27;;;;;;;68.32;29.25;;;8.40;99.90;;;7.21;100.00;101140.25;4948071;28;20063;-79
2023/03/21 03:01:59;;;;;;;68.47;30.45;;;8.50;99.90;;;7.21;100.00;101139.41;4971445;23;20542;-80
2023/03/21 03:04:28;;;;;;;71.65;30.52;;;8.50;99.90;;;7.21;100.00;101142.03;4991405;28;20051;-80
2023/03/21 03:07:11;;;;;;;76.32;30.80;;;8.50;99.90;;;7.24;100.00;101155.06;5011016;28;20083;-79
2023/03/21 03:10:24;;;;;;;65.45;29.52;;;8.50;99.90;;;7.24;100.00;101145.44;4949385;28;20513;-80
2023/03/21 03:13:31;;;;;;;70.18;29.80;;;8.50;99.90;;;7.22;100.00;101147.22;4954927;28;20045;-79
2023/03/21 03:16:25;;;;;;;83.38;31.42;;;8.50;99.90;;;7.19;100.00;101139.44;4962226;28;20027;-80
2023/03/21 03:19:07;;;;;;;70.93;29.98;;;8.50;99.90;;;7.17;100.00;101142.13;4947851;28;20039;-80
2023/03/21 03:21:48;;;;;;;81.15;32.38;;;8.40;99.90;;;7.18;100.00;101142.97;4955429;22;20069;-81
2023/03/21 03:24:30;;;;;;;63.40;30.00;;;8.40;99.90;;;7.19;100.00;101144.66;5020189;28;20107;-80
2023/03/21 03:27:08;;;;;;;72.50;30.50;;;8.50;99.90;;;7.21;100.00;101137.63;4968981;28;20036;-80
2023/03/21 03:29:39;;;;;;;88.18;33.80;;;8.40;99.90;;;7.20;100.00;101133.31;5011296;28;20050;-80
2023/03/21 03:32:27;;;;;;;87.60;34.03;;;8.50;99.90;;;7.22;100.00;101135.91;4987968;28;20033;-80
2023/03/21 03:34:56;;;;;;;76.63;31.92;;;8.50;99.90;;;7.22;100.00;101130.66;5040736;28;20089;-80
2023/03/21 03:37:28;;;;;;;100.38;35.28;;;8.40;99.90;;;7.20;100.00;101130.69;5031005;28;20036;-80
2023/03/21 03:40:15;;;;;;;74.65;33.15;;;8.50;99.90;;;7.20;100.00;101133.31;5015140;28;20046;-79
2023/03/21 03:42:52;;;;;;;87.22;35.22;;;8.50;99.90;;;7.21;100.00;101129.78;4992114;23;20052;-80
2023/03/21 03:45:22;;;;;;;92.90;36.20;;;8.50;99.90;;;7.21;100.00;101132.41;5039334;28;20045;-79
2023/03/21 03:48:16;;;;;;;92.28;37.30;;;8.40;99.90;;;7.22;100.00;101135.91;5013644;28;20043;-80
2023/03/21 03:51:16;;;;;;;86.93;36.08;;;8.50;99.90;;;7.24;100.00;101141.97;4978136;28;20120;-81
2023/03/21 03:54:21;;;;;;;108.63;38.15;;;8.50;99.90;;;7.26;100.00;101134.94;4964050;28;20112;-80
2023/03/21 03:56:49;;;;;;;136.77;42.92;;;8.70;99.90;;;7.25;100.00;101133.19;4944619;28;20033;-80
2023/03/21 03:59:20;;;;;;;119.88;41.55;;;8.50;99.90;;;7.24;100.00;101134.94;4978102;28;20030;-81
2023/03/21 04:01:47;;;;;;;139.63;45.03;;;8.50;99.90;;;7.23;100.00;101127.97;4967542;28;20051;-80
2023/03/21 04:04:15;;;;;;;154.35;47.95;;;8.50;99.90;;;7.24;100.00;101136.72;4971458;28;20091;-79
2023/03/21 04:06:50;;;;;;;150.38;46.95;;;8.50;99.90;;;7.21;100.00;101131.53;4992227;28;20220;-80
2023/03/21 04:09:17;;;;;;;137.00;47.30;;;8.50;99.90;;;7.19;100.00;101140.31;4981936;28;20044;-80
2023/03/21 04:11:43;;;;;;;149.88;49.50;;;8.50;99.90;;;7.19;100.00;101132.47;5013270;23;20044;-81
2023/03/21 04:14:09;;;;;;;153.40;49.28;;;8.50;99.90;;;7.21;100.00;101129.78;4990332;28;20124;-80
2023/03/21 04:16:35;;;;;;;140.20;49.25;;;8.50;99.90;;;7.23;100.00;101134.97;4979266;28;20049;-80
2023/03/21 04:19:10;;;;;;;168.38;50.00;;;8.50;99.90;;;7.25;100.00;101135.81;4979120;28;20592;-80
2023/03/21 04:21:36;;;;;;;121.32;46.03;;;8.50;99.90;;;7.27;100.00;101136.63;4892705;28;20058;-80
2023/03/21 04:24:01;;;;;;;151.40;49.60;;;8.50;99.90;;;7.24;100.00;101131.47;4958181;28;20045;-80
2023/03/21 04:26:37;;;;;;;150.30;49.45;;;8.50;99.90;;;7.25;100.00;101136.66;4948912;28;20425;-80
2023/03/21 04:29:04;;;;;;;149.00;49.13;;;8.50;99.90;;;7.26;100.00;101140.16;4973679;28;20037;-81
2023/03/21 04:31:41;;;;;;;170.00;50.15;;;8.50;99.90;;;7.25;100.00;101136.66;4989039;28;20809;-79
2023/03/21 04:34:08;;;;;;;155.75;50.97;;;8.50;99.90;;;7.23;100.00;101146.31;4968481;28;20052;-80
2023/03/21 04:36:42;;;;;;;169.43;53.17;;;8.50;99.90;;;7.23;100.00;101138.47;4985781;28;20037;-80
2023/03/21 04:39:11;;;;;;;166.02;51.47;;;8.50;99.90;;;7.22;100.00;101138.53;4937214;28;20045;-80
2023/03/21 04:41:46;;;;;;;156.75;50.95;;;8.50;99.90;;;7.23;100.00;101137.59;5004092;28;20645;-80
2023/03/21 04:44:14;;;;;;;137.07;48.08;;;8.50;99.90;;;7.22;100.00;101138.53;5000114;28;20053;-80
2023/03/21 04:46:41;;;;;;;180.45;54.45;;;8.50;99.90;;;7.22;100.00;101138.53;4996318;28;20464;-79
2023/03/21 04:49:06;;;;;;;172.38;53.20;;;8.50;99.90;;;7.21;100.00;101136.78;4950559;28;20041;-81
2023/03/21 04:51:40;;;;;;;179.05;54.75;;;8.50;99.90;;;7.22;100.00;101138.53;4924762;28;20030;-80
2023/03/21 04:54:08;;;;;;;175.32;54.03;;;8.50;99.90;;;7.22;100.00;101135.91;4895433;28;20041;-80
2023/03/21 04:56:35;;;;;;;154.80;52.38;;;8.50;99.90;;;7.21;100.00;101129.78;4971475;28;20033;-80
2023/03/21 04:59:13;;;;;;;180.35;58.20;;;8.50;99.90;;;7.18;100.00;101133.34;4987267;28;20028;-81
2023/03/21 05:01:40;;;;;;;179.00;56.65;;;8.40;99.90;;;7.16;100.00;101134.28;4963726;28;20119;-80
2023/03/21 05:04:09;;;;;;;167.85;58.20;;;8.40;99.90;;;7.18;100.00;101135.09;4976922;28;20034;-81
2023/03/21 05:06:35;;;;;;;178.65;59.35;;;8.40;99.90;;;7.17;100.00;101136.00;4966971;28;20038;-80
2023/03/21 05:09:05;;;;;;;202.57;60.65;;;8.40;99.90;;;7.17;100.00;101139.50;4958432;28;20401;-80
2023/03/21 05:11:37;;;;;;;186.35;60.45;;;8.40;99.90;;;7.17;100.00;101131.63;4975316;28;20037;-80
2023/03/21 05:14:10;;;;;;;193.98;61.10;;;8.40;99.90;;;7.17;100.00;101138.59;4959978;28;20032;-80
2023/03/21 05:17:03;;;;;;;187.63;63.47;;;8.50;99.90;;;7.17;100.00;101139.50;4980140;28;20033;-80
2023/03/21 05:19:41;;;;;;;190.82;62.63;;;8.40;99.90;;;7.15;100.00;101137.81;4989840;28;20409;-80
2023/03/21 05:22:10;;;;;;;169.18;57.97;;;8.40;99.90;;;7.16;100.00;101140.38;5013178;28;20041;-80
2023/03/21 05:24:48;;;;;;;186.25;63.92;;;8.50;99.90;;;7.17;100.00;101141.22;4979682;28;20089;-81
2023/03/21 05:27:37;;;;;;;186.25;62.65;;;8.50;99.90;;;7.15;100.00;101138.69;4981969;28;20149;-80
2023/03/21 05:30:19;;;;;;;169.75;60.60;;;8.40;99.90;;;7.14;100.00;101144.78;4952892;28;20041;-82
2023/03/21 05:32:45;;;;;;;197.30;65.53;;;8.40;99.90;;;7.12;100.00;101151.81;4994224;28;20035;-80
2023/03/21 05:35:12;;;;;;;181.32;63.55;;;8.40;99.90;;;7.15;100.00;101148.28;4977860;28;20053;-80
2023/03/21 05:37:37;;;;;;;176.30;63.90;;;9.10;99.90;;;7.14;100.00;101146.56;4954459;28;20034;-80
2023/03/21 05:40:11;;;;;;;186.57;65.05;;;8.40;99.90;;;7.16;100.00;101147.38;4994217;28;20102;-80
2023/03/21 05:42:40;;;;;;;186.23;64.57;;;8.40;99.90;;;7.17;100.00;101149.97;4978205;28;20412;-79
2023/03/21 05:45:06;;;;;;;178.88;62.65;;;8.40;99.90;;;7.19;100.00;101142.06;4947955;28;20405;-79
2023/03/21 05:47:41;;;;;;;174.57;62.95;;;8.50;99.90;;;7.19;100.00;101148.16;4995320;28;20025;-80
2023/03/21 05:50:07;;;;;;;167.43;64.38;;;8.50;99.90;;;7.18;100.00;101149.06;4972704;28;20041;-80
2023/03/21 05:52:34;;;;;;;181.95;64.57;;;8.50;99.90;;;7.22;100.00;101146.38;4971203;28;21392;-80
2023/03/21 05:55:09;;;;;;;183.80;64.47;;;8.50;99.90;;;7.23;100.00;101150.69;4992979;28;20053;-80
2023/03/21 05:57:38;;;;;;;176.38;62.55;;;8.50;99.90;;;7.20;100.00;101149.03;5013089;28;20037;-80
2023/03/21 06:00:11;;;;;;;185.45;65.38;;;8.50;99.90;;;7.20;100.00;101143.78;5008556;28;20029;-80
2023/03/21 06:02:38;;;;;;;171.55;63.20;;;8.50;99.90;;;7.21;100.00;101147.25;4996829;28;20038;-81
2023/03/21 06:05:14;;;;;;;169.40;61.38;;;8.50;99.90;;;7.20;100.00;101149.03;4973738;28;20026;-81
2023/03/21 06:07:41;;;;;;;178.80;62.33;;;8.50;99.90;;;7.20;100.00;101149.03;4975548;28;20180;-79
2023/03/21 06:10:07;;;;;;;162.40;61.00;;;8.50;99.90;;;7.18;100.00;101146.44;4976175;28;20036;-79
2023/03/21 06:12:33;;;;;;;166.38;60.53;;;8.50;99.90;;;7.16;100.00;101147.38;4968616;28;20036;-79
2023/03/21 06:15:00;;;;;;;158.15;59.60;;;8.50;99.90;;;7.18;100.00;101143.81;4967866;28;20447;-79
2023/03/21 06:17:31;;;;;;;154.73;59.90;;;8.50;99.90;;;7.22;100.00;101151.63;4959235;28;20405;-80
2023/03/21 06:19:59;;;;;;;144.23;58.17;;;8.50;99.90;;;7.25;100.00;101155.00;4980269;28;20050;-80
2023/03/21 06:22:26;;;;;;;161.35;58.78;;;8.50;99.90;;;7.27;100.00;101144.47;5006369;28;20034;-80
2023/03/21 06:24:59;;;;;;;166.52;59.58;;;8.50;99.90;;;7.32;100.00;101150.44;4961144;28;20169;-79
2023/03/21 06:27:25;;;;;;;157.10;59.80;;;8.60;99.90;;;7.38;100.00;101139.81;4970820;28;20033;-80
2023/03/21 06:29:51;;;;;;;139.98;57.88;;;8.60;99.90;;;7.46;100.00;101137.84;5001611;28;20107;-79
2023/03/21 06:32:18;;;;;;;155.50;58.53;;;8.70;99.90;;;7.55;100.00;101150.69;5011725;28;20022;-79
2023/03/21 06:34:46;;;;;;;145.50;56.72;;;8.70;99.90;;;7.64;100.00;101154.81;5016299;28;20044;-80
2023/03/21 06:37:18;;;;;;;129.40;54.22;;;8.80;99.90;;;7.69;100.00;101158.19;5023285;28;20049;-79
2023/03/21 06:39:45;;;;;;;113.40;51.70;;;8.90;99.90;;;7.72;100.00;101152.00;4977362;28;20033;-80
2023/03/21 06:42:19;;;;;;;123.07;52.92;;;8.90;99.90;;;7.77;100.00;101153.56;4963982;28;20530;-79
2023/03/21 06:44:48;;;;;;;121.43;50.47;;;9.00;99.90;;;7.85;100.00;101158.63;4947779;28;20045;-80
2023/03/21 06:47:14;;;;;;;105.63;49.30;;;9.00;99.90;;;7.88;100.00;101152.41;4976071;28;20049;-80
2023/03/21 06:49:46;;;;;;;103.82;47.22;;;9.10;99.90;;;7.95;100.00;101154.84;4982977;28;20028;-80
2023/03/21 06:52:12;;;;;;;97.72;47.05;;;9.20;99.90;;;8.01;100.00;101153.78;4971659;28;20739;-79
2023/03/21 06:54:38;;;;;;;96.13;46.33;;;9.20;99.90;;;8.07;100.00;101155.38;4963541;28;20045;-78
2023/03/21 06:57:04;;;;;;;89.10;44.08;;;9.20;99.90;;;8.05;100.00;101154.56;5010694;28;20025;-79
2023/03/21 06:59:30;;;;;;;83.78;42.65;;;9.20;99.90;;;8.06;100.00;101153.69;4986067;28;20033;-80
2023/03/21 07:02:02;;;;;;;87.80;42.95;;;9.30;99.90;;;8.09;100.00;101159.66;4985592;28;20532;-79
2023/03/21 07:04:27;;;;;;;79.25;42.40;;;9.30;99.90;;;8.11;100.00;101162.25;4936326;28;20040;-80
2023/03/21 07:06:57;;;;;;;76.60;40.92;;;9.30;99.90;;;8.13;100.00;101163.06;5001927;28;20091;-78
2023/03/21 07:09:26;;;;;;;72.25;40.42;;;9.30;99.90;;;8.18;100.00;101166.41;4996385;28;20041;-80
2023/03/21 07:11:55;;;;;;;70.97;40.13;;;9.40;99.90;;;8.18;100.00;101155.91;4959731;28;20033;-79
2023/03/21 07:14:22;;;;;;;72.80;38.40;;;9.40;99.90;;;8.15;100.00;101167.38;4954843;28;20128;-79
2023/03/21 07:16:48;;;;;;;69.65;37.20;;;9.40;99.90;;;8.20;100.00;101157.59;4990902;28;20052;-79
2023/03/21 07:19:14;;;;;;;75.20;37.08;;;9.40;99.90;;;8.24;100.00;101150.50;4965733;28;20025;-80
2023/03/21 07:21:47;;;;;;;62.90;36.80;;;9.40;99.90;;;8.27;100.00;101165.28;4951627;28;20103;-79
2023/03/21 07:24:13;;;;;;;69.25;37.15;;;9.50;99.90;;;8.32;100.00;101158.13;4957644;28;20053;-79
2023/03/21 07:26:39;;;;;;;62.83;35.10;;;9.50;99.90;;;8.43;100.00;101155.22;4985000;28;20046;-79
2023/03/21 07:29:05;;;;;;;64.13;34.70;;;9.60;99.90;;;8.57;100.00;101160.88;5018762;28;20773;-79
2023/03/21 07:31:31;;;;;;;59.13;33.47;;;;;;;8.69;100.00;101162.28;4975929;28;20052;-79
2023/03/21 07:33:57;;;;;;;52.47;32.17;;;9.80;99.90;;;8.82;100.00;101160.97;5031898;28;20033;-80
2023/03/21 07:36:26;;;;;;;52.83;32.08;;;9.90;99.90;;;8.88;100.00;101165.19;4993966;28;20040;-80
2023/03/21 07:38:52;;;;;;;47.05;31.15;;;10.00;99.90;;;8.90;100.00;101160.72;4962006;28;20262;-79
2023/03/21 07:41:18;;;;;;;54.53;31.42;;;10.00;99.90;;;8.98;100.00;101156.91;4931053;28;20405;-79
2023/03/21 07:43:44;;;;;;;55.13;30.98;;;10.10;99.90;;;9.09;100.00;101161.81;4982245;28;20042;-81
2023/03/21 07:46:10;;;;;;;54.10;30.30;;;10.20;99.90;;;9.23;100.00;101158.75;5004754;28;20088;-79
2023/03/21 07:48:36;;;;;;;50.45;27.88;;;10.30;99.90;;;9.36;100.00;101165.28;4993322;28;20033;-79
2023/03/21 07:51:06;;;;;;;45.72;28.45;;;10.40;99.90;;;9.50;98.94;101166.56;4990049;28;20044;-80
2023/03/21 07:53:32;;;;;;;40.97;26.63;;;10.50;99.90;;;9.43;97.71;101163.31;5001662;28;20029;-79
2023/03/21 07:55:57;;;;;;;47.00;27.95;;;10.50;99.90;;;9.50;97.11;101162.16;4983894;28;20207;-80
2023/03/21 07:58:25;;;;;;;44.95;26.50;;;10.60;99.90;;;9.57;96.28;101165.47;4969495;28;20134;-78
2023/03/21 08:00:57;;;;;;;49.97;26.02;;;10.60;99.90;;;9.65;96.13;101166.91;4977635;28;20065;-80
2023/03/21 08:03:25;;;;;;;35.05;22.88;;;10.70;99.90;;;9.72;95.17;101157.03;4945536;28;20075;-79
2023/03/21 08:05:51;;;;;;;40.20;23.92;;;10.80;99.90;;;9.92;94.05;101164.19;4927254;28;20044;-78
2023/03/21 08:08:17;;;;;;;44.58;23.63;;;10.90;99.90;;;10.21;93.37;101168.34;4967942;28;20037;-79
2023/03/21 08:10:43;;;;;;;37.67;22.77;;;11.10;99.90;;;10.53;91.42;101173.31;4987383;28;20037;-79
2023/03/21 08:13:14;;;;;;;35.20;21.70;;;11.40;99.90;;;10.68;89.66;101176.19;4953966;28;20142;-79
2023/03/21 08:15:40;;;;;;;38.65;22.92;;;11.50;99.90;;;10.65;89.00;101178.13;5008209;28;20036;-78
2023/03/21 08:18:07;;;;;;;36.28;22.05;;;11.60;99.90;;;10.63;88.64;101182.59;4995989;28;20040;-79
2023/03/21 08:20:33;;;;;;;38.05;22.73;;;;;;;10.71;88.81;101180.47;4973934;28;20083;-80
2023/03/21 08:22:59;;;;;;;37.00;23.17;;;11.70;99.90;;;10.84;88.10;101188.75;5000926;28;20045;-79
2023/03/21 08:25:29;;;;;;;41.88;24.02;;;11.80;99.90;;;10.93;87.52;101190.16;4992166;28;20455;-79
2023/03/21 08:27:55;;;;;;;40.13;24.42;;;11.90;99.90;;;10.99;86.94;101185.53;4989942;28;20033;-79
2023/03/21 08:30:25;;;;;;;43.50;23.38;;;12.00;99.90;;;11.08;87.03;101189.56;4975847;28;20045;-78
2023/03/21 08:32:57;;;;;;;46.85;24.00;;;12.10;99.90;;;11.14;86.60;101185.78;4928381;28;20040;-78
2023/03/21 08:35:23;;;;;;;40.25;23.73;;;12.10;99.90;;;11.16;86.09;101186.59;5013362;28;20114;-79
2023/03/21 08:37:49;;;;;;;38.75;24.13;;;12.10;99.90;;;11.15;86.63;101183.09;4983525;28;20119;-78
2023/03/21 08:40:17;;;;;;;40.20;22.70;;;12.10;99.90;;;11.22;86.63;101187.19;4979577;28;20083;-79
2023/03/21 08:42:51;;;;;;;40.63;23.85;;;12.20;99.90;;;11.24;86.06;101187.97;4958331;28;20049;-79
2023/03/21 08:45:17;;;;;;;39.05;23.20;;;12.20;99.90;;;11.29;86.03;101193.06;4979604;28;20035;-79
2023/03/21 08:47:44;;;;;;;38.10;23.88;;;12.20;99.90;;;11.19;85.92;101187.31;4977294;28;20069;-79
2023/03/21 08:50:22;;;;;;;36.45;22.90;;;12.20;99.90;;;11.09;85.96;101191.25;4962909;28;20082;-79
2023/03/21 08:52:49;;;;;;;36.88;22.70;;;12.10;99.90;;;10.95;86.20;101193.59;4977847;28;20531;-78
2023/03/21 08:55:18;;;;;;;36.55;22.27;;;12.00;99.90;;;10.83;86.45;101193.16;4997797;28;21215;-79
2023/03/21 08:57:46;;;;;;;31.70;22.65;;;12.00;99.90;;;10.71;86.24;101185.75;4956091;28;20117;-79
2023/03/21 09:00:17;;;;;;;33.53;22.15;;;11.90;99.90;;;10.69;86.13;101184.97;4968483;28;20029;-77
2023/03/21 09:02:53;;;;;;;38.45;23.35;;;11.80;99.90;;;10.60;86.72;101190.59;4995274;28;20037;-79
2023/03/21 09:05:20;;;;;;;33.53;21.45;;;11.70;99.90;;;10.51;86.72;101185.69;4951449;28;20173;-78
2023/03/21 09:07:48;;;;;;;34.95;23.02;;;11.60;99.90;;;10.42;87.67;101195.66;5021881;28;20022;-79
2023/03/21 09:10:20;;;;;;;35.90;23.75;;;11.60;99.90;;;10.38;87.54;101190.56;4970671;28;20555;-78
2023/03/21 09:12:47;;;;;;;39.20;22.30;;;11.50;99.90;;;10.21;87.98;101192.03;4996876;28;20067;-79
2023/03/21 09:15:13;;;;;;;35.10;23.23;;;11.40;99.90;;;10.12;87.66;101195.00;5011093;28;20032;-79
2023/03/21 09:17:48;;;;;;;35.97;24.10;;;11.40;99.90;;;10.09;88.04;101181.97;5011291;28;20061;-78
2023/03/21 09:20:24;;;;;;;36.75;23.23;;;11.30;99.90;;;10.07;88.54;101184.66;5000406;28;20120;-79
2023/03/21 09:22:52;;;;;;;37.75;24.15;;;11.30;99.90;;;10.15;88.80;101188.75;4999072;28;20545;-78
2023/03/21 09:25:21;;;;;;;41.88;24.55;;;11.30;99.90;;;10.37;88.83;101188.88;4981979;28;20033;-78
2023/03/21 09:27:53;;;;;;;37.08;23.75;;;11.50;99.90;;;10.73;88.88;101189.19;4991100;28;21088;-78
2023/03/21 09:30:21;;;;;;;37.70;24.60;;;11.80;99.90;;;11.13;87.62;101178.81;5007326;28;20045;-79
2023/03/21 09:32:49;;;;;;;33.28;22.10;;;12.10;99.90;;;11.54;86.25;101184.97;4973678;28;20105;-79
2023/03/21 09:35:23;;;;;;;33.55;21.73;;;12.40;99.90;;;11.74;84.48;101184.09;4984633;28;20703;-78
2023/03/21 09:37:49;;;;;;;30.15;21.80;;;12.70;99.90;;;12.04;83.38;101186.31;4983791;28;20049;-78
2023/03/21 09:40:22;;;;;;;31.35;21.67;;;12.90;99.90;;;11.97;82.32;101177.81;5001830;28;20613;-78
2023/03/21 09:43:05;;;;;;;34.17;22.38;;;12.90;99.90;;;11.98;81.80;101176.88;5019123;28;20045;-78
2023/03/21 09:45:51;;;;;;;34.30;23.08;;;12.90;99.90;;;11.96;82.09;101180.53;5013776;28;20033;-78
2023/03/21 09:48:39;;;;;;;32.78;21.05;;;13.00;99.90;;;12.21;82.34;101177.63;4967343;28;20041;-80
2023/03/21 09:51:17;;;;;;;30.95;19.55;;;13.10;99.90;;;12.64;81.48;101181.75;4988252;28;20029;-79
2023/03/21 09:53:47;;;;;;;22.95;17.08;;;13.50;99.90;;;13.01;79.62;101181.75;4987979;28;20083;-79
2023/03/21 09:56:17;;;;;;;27.33;17.45;;;13.80;99.90;;;13.23;78.70;101179.72;5004715;28;20050;-79
2023/03/21 09:58:53;;;;;;;26.50;17.92;;;13.90;99.90;;;13.13;78.16;101173.19;4998049;28;20056;-79
2023/03/21 10:01:28;;;;;;;23.98;17.30;;;13.90;99.90;;;12.77;78.37;101171.44;4991267;28;20452;-79
2023/03/21 10:04:06;;;;;;;26.30;17.17;;;13.70;99.90;;;12.53;78.15;101168.19;4999379;28;20043;-79
2023/03/21 10:06:40;;;;;;;21.65;14.77;;;13.70;99.90;;;12.57;78.29;101168.88;5013322;28;20704;-79
2023/03/21 10:09:23;;;;;;;21.65;15.55;;;13.60;99.90;;;12.60;78.54;101166.97;4981807;28;20501;-80
2023/03/21 10:12:22;;;;;;;20.65;15.10;;;13.60;99.90;;;12.42;78.69;101163.41;4954967;28;20029;-79
2023/03/21 10:14:53;;;;;;;24.63;16.05;;;13.50;99.90;;;12.51;79.49;101168.25;5015299;28;20063;-79
2023/03/21 10:17:40;;;;;;;27.02;17.50;;;13.50;99.90;;;12.40;78.92;101162.63;4999136;28;20036;-78
2023/03/21 10:20:32;;;;;;;28.58;18.92;;;13.40;99.90;;;12.26;79.51;101162.41;4999145;28;20502;-78
2023/03/21 10:23:05;;;;;;;25.42;17.33;;;13.30;99.90;;;11.96;79.64;101154.97;4995670;28;21226;-78
2023/03/21 10:25:44;;;;;;;24.50;18.50;;;13.20;99.90;;;12.03;80.38;101161.72;4999498;28;20037;-78